Time;durP1;ratioP1;P1;durP2;ratioP2;P2;SDS_P1;SDS_P2;PMS_P1;PMS_P2;Temp;Humidity;BMP_temperature;BMP_pressure;BME280_temperature;BME280_humidity;BME280_pressure;Samples;Min_cycle;Max_cycle;Signal;HPM_P1;HPM_P2
2023/05/24 00:00:18;;;;;;;;;;;;;;;;;;5032997;28;20043;-59
2023/05/24 00:02:43;;;;;;;;;;;;;;;;;;5050407;28;20166;-59
2023/05/24 00:05:09;;;;;;;;;;;;;;;;;;5048486;28;19927;-59
2023/05/24 00:07:37;;;;;;;;;;;;;;;;;;5066258;28;19920;-59
2023/05/24 00:10:05;;;;;;;;;;;;;;;;;;5042201;28;20341;-59
2023/05/24 00:12:33;;;;;;;;;;;;;;;;;;5050488;28;19923;-59
2023/05/24 00:15:01;;;;;;;;;;;;;;;;;;5033182;28;19920;-59
2023/05/24 00:17:29;;;;;;;;;;;;;;;;;;5064714;28;20002;-59
2023/05/24 00:19:57;;;;;;;;;;;;;;;;;;5066755;28;19916;-59
2023/05/24 00:22:22;;;;;;;;;;;;;;;;;;5038338;28;19920;-59
2023/05/24 00:24:47;;;;;;;;;;;;;;;;;;5033997;28;19973;-59
2023/05/24 00:27:12;;;;;;;;;;;;;;;;;;5032990;28;20817;-59
2023/05/24 00:29:40;;;;;;;;;;;;;;;;;;5050167;28;19920;-59
2023/05/24 00:32:08;;;;;;;;;;;;;;;;;;5031333;28;20988;-59
2023/05/24 00:34:36;;;;;;;;;;;;;;;;;;5050703;28;19920;-59
2023/05/24 00:37:01;;;;;;;;;;;;;;;;;;5037232;28;19924;-59
2023/05/24 00:39:30;;;;;;;;;;;;;;;;;;5053368;28;20648;-59
2023/05/24 00:41:55;;;;;;;;;;;;;;;;;;5045130;28;19938;-59
2023/05/24 00:44:25;;;;;;;;;;;;;;;;;;5052471;28;19920;-59
2023/05/24 00:46:51;;;;;;;;;;;;;;;;;;5034261;28;20458;-59
2023/05/24 00:49:16;;;;;;;;;;;;;;;;;;5072352;28;19961;-59
2023/05/24 00:51:41;;;;;;;;;;;;;;;;;;5048154;28;19920;-59
2023/05/24 00:54:07;;;;;;;;;;;;;;;;;;5068875;28;19923;-59
2023/05/24 00:56:32;;;;;;;;;;;;;;;;;;5069554;28;20859;-59
2023/05/24 00:59:00;;;;;;;;;;;;;;;;;;5070634;28;20660;-59
2023/05/24 01:01:25;;;;;;;;;;;;;;;;;;5068830;28;20222;-59
2023/05/24 01:03:56;;;;;;;;;;;;;;;;;;5071560;28;20301;-60
2023/05/24 01:06:25;;;;;;;;;;;;;;;;;;5072335;28;20084;-59
2023/05/24 01:08:54;;;;;;;;;;;;;;;;;;5048605;28;20113;-60
2023/05/24 01:11:22;;;;;;;;;;;;;;;;;;5054030;28;19916;-60
2023/05/24 01:13:51;;;;;;;;;;;;;;;;;;5038618;28;20030;-60
2023/05/24 01:16:20;;;;;;;;;;;;;;;;;;5045851;28;19924;-60
2023/05/24 01:18:45;;;;;;;;;;;;;;;;;;5024203;28;20367;-60
2023/05/24 01:21:10;;;;;;;;;;;;;;;;;;5034282;28;19923;-59
2023/05/24 01:23:38;;;;;;;;;;;;;;;;;;5036455;28;19938;-59
2023/05/24 01:26:03;;;;;;;;;;;;;;;;;;5068842;28;20127;-59
2023/05/24 01:28:31;;;;;;;;;;;;;;;;;;5051040;28;19920;-59
2023/05/24 01:31:01;;;;;;;;;;;;;;;;;;5067488;28;20366;-60
2023/05/24 01:33:26;;;;;;;;;;;;;;;;;;5050805;28;19927;-59
2023/05/24 01:35:54;;;;;;;;;;;;;;;;;;5066795;28;19959;-60
2023/05/24 01:38:22;;;;;;;;;;;;;;;;;;5029948;28;20070;-59
2023/05/24 01:40:47;;;;;;;;;;;;;;;;;;5051828;28;20376;-60
2023/05/24 01:43:13;;;;;;;;;;;;;;;;;;5036632;28;20507;-60
2023/05/24 01:45:38;;;;;;;;;;;;;;;;;;5042099;28;20388;-59
2023/05/24 01:48:05;;;;;;;;;;;;;;;;;;5062378;28;19920;-59
2023/05/24 01:50:33;;;;;;;;;;;;;;;;;;5052949;28;20010;-59
2023/05/24 01:52:59;;;;;;;;;;;;;;;;;;5048199;28;19927;-59
2023/05/24 01:55:24;;;;;;;;;;;;;;;;;;5036124;28;19916;-59
2023/05/24 01:57:49;;;;;;;;;;;;;;;;;;5037517;28;20554;-59
2023/05/24 02:00:15;;;;;;;;;;;;;;;;;;5067784;28;19970;-59
2023/05/24 02:02:43;;;;;;;;;;;;;;;;;;5037491;28;20106;-59
2023/05/24 02:05:11;;;;;;;;;;;;;;;;;;5033648;28;19936;-59
2023/05/24 02:07:40;;;;;;;;;;;;;;;;;;5048258;28;20531;-59
2023/05/24 02:10:05;;;;;;;;;;;;;;;;;;5065867;28;20945;-59
2023/05/24 02:12:31;;;;;;;;;;;;;;;;;;5070629;28;19920;-60
2023/05/24 02:14:56;;;;;;;;;;;;;;;;;;5068634;28;19990;-59
2023/05/24 02:17:25;;;;;;;;;;;;;;;;;;5066945;28;19977;-59
2023/05/24 02:19:50;;;;;;;;;;;;;;;;;;5070593;28;19973;-59
2023/05/24 02:22:16;;;;;;;;;;;;;;;;;;5048962;28;20016;-59
2023/05/24 02:24:42;;;;;;;;;;;;;;;;;;5050085;28;20389;-59
2023/05/24 02:27:12;;;;;;;;;;;;;;;;;;5052088;28;19950;-59
2023/05/24 02:29:38;;;;;;;;;;;;;;;;;;5051380;28;20219;-59
2023/05/24 02:32:05;;;;;;;;;;;;;;;;;;5051906;28;19912;-59
2023/05/24 02:34:36;;;;;;;;;;;;;;;;;;5035628;28;19934;-59
2023/05/24 02:37:01;;;;;;;;;;;;;;;;;;5072206;28;20051;-60
2023/05/24 02:39:26;;;;;;;;;;;;;;;;;;5051736;28;19920;-59
2023/05/24 02:41:52;;;;;;;;;;;;;;;;;;5047760;28;19973;-59
2023/05/24 02:44:17;;;;;;;;;;;;;;;;;;5032264;28;20462;-59
2023/05/24 02:46:45;;;;;;;;;;;;;;;;;;5050863;28;20770;-59
2023/05/24 02:49:13;;;;;;;;;;;;;;;;;;5051135;28;19920;-60
2023/05/24 02:51:38;;;;;;;;;;;;;;;;;;5051740;28;20401;-59
2023/05/24 02:54:06;;;;;;;;;;;;;;;;;;5031545;28;19922;-59
2023/05/24 02:56:32;;;;;;;;;;;;;;;;;;5049337;28;19928;-60
2023/05/24 02:58:57;;;;;;;;;;;;;;;;;;5050160;28;19926;-60
2023/05/24 03:01:22;;;;;;;;;;;;;;;;;;5029344;28;20456;-59
2023/05/24 03:03:48;;;;;;;;;;;;;;;;;;5064484;28;20344;-59
2023/05/24 03:06:15;;;;;;;;;;;;;;;;;;5062162;28;19920;-60
2023/05/24 03:08:40;;;;;;;;;;;;;;;;;;5065064;28;20001;-60
2023/05/24 03:11:06;;;;;;;;;;;;;;;;;;5050606;28;20014;-60
2023/05/24 03:13:31;;;;;;;;;;;;;;;;;;5049291;28;19928;-59
2023/05/24 03:15:56;;;;;;;;;;;;;;;;;;5065175;28;19920;-59
2023/05/24 03:18:24;;;;;;;;;;;;;;;;;;5048045;28;20312;-59
2023/05/24 03:20:49;;;;;;;;;;;;;;;;;;5065777;28;19924;-58
2023/05/24 03:23:15;;;;;;;;;;;;;;;;;;5032433;28;19916;-59
2023/05/24 03:25:42;;;;;;;;;;;;;;;;;;5046693;28;20527;-59
2023/05/24 03:28:13;;;;;;;;;;;;;;;;;;5043628;28;20018;-59
2023/05/24 03:30:38;;;;;;;;;;;;;;;;;;5031234;28;20409;-59
2023/05/24 03:33:06;;;;;;;;;;;;;;;;;;5048444;28;20007;-59
2023/05/24 03:35:34;;;;;;;;;;;;;;;;;;5030539;28;19928;-59
2023/05/24 03:37:59;;;;;;;;;;;;;;;;;;5062470;28;20016;-59
2023/05/24 03:40:31;;;;;;;;;;;;;;;;;;5044642;28;19919;-59
2023/05/24 03:42:59;;;;;;;;;;;;;;;;;;5060282;28;19981;-59
2023/05/24 03:45:24;;;;;;;;;;;;;;;;;;5032388;28;20058;-59
2023/05/24 03:47:52;;;;;;;;;;;;;;;;;;5045220;28;19916;-59
2023/05/24 03:50:17;;;;;;;;;;;;;;;;;;5043072;28;19928;-60
2023/05/24 03:52:46;;;;;;;;;;;;;;;;;;5048986;28;19993;-60
2023/05/24 03:58:31;;;;;;;;;;;;;;;;;;5052504;28;19934;-60
2023/05/24 04:00:59;;;;;;;;;;;;;;;;;;5046711;28;19920;-60
2023/05/24 04:03:28;;;;;;;;;;;;;;;;;;5031662;28;20509;-61
2023/05/24 04:05:56;;;;;;;;;;;;;;;;;;5052307;28;19916;-60
2023/05/24 04:08:24;;;;;;;;;;;;;;;;;;5054768;28;19923;-60
2023/05/24 04:10:50;;;;;;;;;;;;;;;;;;5037307;28;19920;-60
2023/05/24 04:13:15;;;;;;;;;;;;;;;;;;5038726;28;19927;-59
2023/05/24 04:15:40;;;;;;;;;;;;;;;;;;5037891;28;19928;-59
2023/05/24 04:18:08;;;;;;;;;;;;;;;;;;5070766;28;19955;-60
2023/05/24 04:20:34;;;;;;;;;;;;;;;;;;5052472;28;21497;-60
2023/05/24 04:23:02;;;;;;;;;;;;;;;;;;5035623;28;20361;-60
2023/05/24 04:25:27;;;;;;;;;;;;;;;;;;5069072;28;19920;-60
2023/05/24 04:27:52;;;;;;;;;;;;;;;;;;5033815;28;19947;-61
2023/05/24 04:30:18;;;;;;;;;;;;;;;;;;5066889;28;19923;-60
2023/05/24 04:32:46;;;;;;;;;;;;;;;;;;5034856;28;19955;-60
2023/05/24 04:35:15;;;;;;;;;;;;;;;;;;5052190;28;21955;-60
2023/05/24 04:37:43;;;;;;;;;;;;;;;;;;5071684;28;20014;-60
2023/05/24 04:40:09;;;;;;;;;;;;;;;;;;5046534;28;20036;-59
2023/05/24 04:42:39;;;;;;;;;;;;;;;;;;5036398;28;19923;-59
2023/05/24 04:45:07;;;;;;;;;;;;;;;;;;5070038;28;19924;-60
2023/05/24 04:47:35;;;;;;;;;;;;;;;;;;5054852;28;19916;-59
2023/05/24 04:50:03;;;;;;;;;;;;;;;;;;5034106;28;20023;-58
2023/05/24 04:52:35;;;;;;;;;;;;;;;;;;5036073;28;19948;-59
2023/05/24 04:55:00;;;;;;;;;;;;;;;;;;5071189;28;19993;-59
2023/05/24 04:57:26;;;;;;;;;;;;;;;;;;5074867;28;19958;-59
2023/05/24 04:59:51;;;;;;;;;;;;;;;;;;5036465;28;19920;-61
2023/05/24 05:02:16;;;;;;;;;;;;;;;;;;5038807;28;20614;-60
2023/05/24 05:04:44;;;;;;;;;;;;;;;;;;5055692;28;19923;-60
2023/05/24 05:07:09;;;;;;;;;;;;;;;;;;5076418;28;20397;-60
2023/05/24 05:09:35;;;;;;;;;;;;;;;;;;5056465;28;19927;-59
2023/05/24 05:12:00;;;;;;;;;;;;;;;;;;5054442;28;20188;-60
2023/05/24 05:14:28;;;;;;;;;;;;;;;;;;5037842;28;20030;-60
2023/05/24 05:16:56;;;;;;;;;;;;;;;;;;5055227;28;19970;-60
2023/05/24 05:19:21;;;;;;;;;;;;;;;;;;5065296;28;19920;-59
2023/05/24 05:21:49;;;;;;;;;;;;;;;;;;5053678;28;19945;-60
2023/05/24 05:24:15;;;;;;;;;;;;;;;;;;5064783;28;19935;-59
2023/05/24 05:26:43;;;;;;;;;;;;;;;;;;5067496;28;19927;-59
2023/05/24 05:29:08;;;;;;;;;;;;;;;;;;5034118;28;19920;-59
2023/05/24 05:31:34;;;;;;;;;;;;;;;;;;5049995;28;19924;-60
2023/05/24 05:34:02;;;;;;;;;;;;;;;;;;5043858;28;20018;-59
2023/05/24 05:36:27;;;;;;;;;;;;;;;;;;5036048;28;19920;-59
2023/05/24 05:38:53;;;;;;;;;;;;;;;;;;5073970;28;19924;-59
2023/05/24 05:41:18;;;;;;;;;;;;;;;;;;5055760;28;19916;-60
2023/05/24 05:43:46;;;;;;;;;;;;;;;;;;5053235;28;20031;-60
2023/05/24 05:46:14;;;;;;;;;;;;;;;;;;5046284;28;20309;-59
2023/05/24 05:48:39;;;;;;;;;;;;;;;;;;5046831;28;19962;-60
2023/05/24 05:51:10;;;;;;;;;;;;;;;;;;5066318;28;19939;-59
2023/05/24 05:53:35;;;;;;;;;;;;;;;;;;5044164;28;20005;-62
2023/05/24 05:56:03;;;;;;;;;;;;;;;;;;5033571;28;20113;-61
2023/05/24 05:58:28;;;;;;;;;;;;;;;;;;5050146;28;19982;-62
2023/05/24 06:00:54;;;;;;;;;;;;;;;;;;5051090;28;19920;-62
2023/05/24 06:03:19;;;;;;;;;;;;;;;;;;5066893;28;19923;-63
2023/05/24 06:05:44;;;;;;;;;;;;;;;;;;5051469;28;20046;-64
2023/05/24 06:08:10;;;;;;;;;;;;;;;;;;5048816;28;20625;-63
2023/05/24 06:10:35;;;;;;;;;;;;;;;;;;5048923;28;19969;-63
2023/05/24 06:13:00;;;;;;;;;;;;;;;;;;5049500;28;19916;-63
2023/05/24 06:15:28;;;;;;;;;;;;;;;;;;5046497;28;19942;-63
2023/05/24 06:17:54;;;;;;;;;;;;;;;;;;5032292;28;20028;-61
2023/05/24 06:20:19;;;;;;;;;;;;;;;;;;5046982;28;20166;-62
2023/05/24 06:22:49;;;;;;;;;;;;;;;;;;5036117;28;19931;-62
2023/05/24 06:25:18;;;;;;;;;;;;;;;;;;5051135;28;19916;-61
2023/05/24 06:27:43;;;;;;;;;;;;;;;;;;5033073;28;19943;-62
2023/05/24 06:30:11;;;;;;;;;;;;;;;;;;5034345;28;19916;-62
2023/05/24 06:32:36;;;;;;;;;;;;;;;;;;5051925;28;19974;-60
2023/05/24 06:35:02;;;;;;;;;;;;;;;;;;5051320;28;19923;-60
2023/05/24 06:37:30;;;;;;;;;;;;;;;;;;5043040;28;20232;-61
2023/05/24 06:39:55;;;;;;;;;;;;;;;;;;5025128;28;20568;-62
2023/05/24 06:42:20;;;;;;;;;;;;;;;;;;5041669;28;19932;-61
2023/05/24 06:44:48;;;;;;;;;;;;;;;;;;5026846;28;20019;-61
2023/05/24 06:47:19;;;;;;;;;;;;;;;;;;5027448;28;19920;-61
2023/05/24 06:49:47;;;;;;;;;;;;;;;;;;5026958;28;19931;-60
2023/05/24 06:52:13;;;;;;;;;;;;;;;;;;5027405;28;19916;-60
2023/05/24 06:54:40;;;;;;;;;;;;;;;;;;5011161;28;20015;-62
2023/05/24 06:57:08;;;;;;;;;;;;;;;;;;5029275;28;19929;-61
2023/05/24 06:59:34;;;;;;;;;;;;;;;;;;5032309;28;19922;-61
2023/05/24 07:02:00;;;;;;;;;;;;;;;;;;5047597;28;19916;-59
2023/05/24 07:04:27;;;;;;;;;;;;;;;;;;5040113;28;20488;-61
2023/05/24 07:06:52;;;;;;;;;;;;;;;;;;5024999;28;19920;-62
2023/05/24 07:09:17;;;;;;;;;;;;;;;;;;5039563;28;19928;-62
2023/05/24 07:11:43;;;;;;;;;;;;;;;;;;5035420;28;20156;-61
2023/05/24 07:14:11;;;;;;;;;;;;;;;;;;5021884;28;19916;-61
2023/05/24 07:16:38;;;;;;;;;;;;;;;;;;5026441;28;20439;-61
2023/05/24 07:19:06;;;;;;;;;;;;;;;;;;5047555;28;19916;-60
2023/05/24 07:21:32;;;;;;;;;;;;;;;;;;5029685;28;19966;-63
2023/05/24 07:23:57;;;;;;;;;;;;;;;;;;5026315;28;19916;-61
2023/05/24 07:26:22;;;;;;;;;;;;;;;;;;5028829;28;19920;-62
2023/05/24 07:28:48;;;;;;;;;;;;;;;;;;5028606;28;19928;-61
2023/05/24 07:31:35;;;;;;;;;;;;;;;;;;5028000;28;20050;-62
2023/05/24 07:34:01;;;;;;;;;;;;;;;;;;5024468;28;20344;-61
2023/05/24 07:36:31;;;;;;;;;;;;;;;;;;5040075;28;19931;-60
2023/05/24 07:39:00;;;;;;;;;;;;;;;;;;5019901;28;20843;-62
2023/05/24 07:41:28;;;;;;;;;;;;;;;;;;5012192;28;20483;-60
2023/05/24 07:43:53;;;;;;;;;;;;;;;;;;5042287;28;19916;-61
2023/05/24 07:46:19;;;;;;;;;;;;;;;;;;5027218;28;20387;-60
2023/05/24 07:48:49;;;;;;;;;;;;;;;;;;5028619;28;20427;-62
2023/05/24 07:51:14;;;;;;;;;;;;;;;;;;5048279;28;20027;-60
2023/05/24 07:53:39;;;;;;;;;;;;;;;;;;5046354;28;20448;-61
2023/05/24 07:56:08;;;;;;;;;;;;;;;;;;5030297;28;19924;-61
2023/05/24 07:58:34;;;;;;;;;;;;;;;;;;5011002;28;20091;-60
2023/05/24 08:00:59;;;;;;;;;;;;;;;;;;5038502;28;19917;-59
2023/05/24 08:03:24;;;;;;;;;;;;;;;;;;5026115;28;19931;-61
2023/05/24 08:05:52;;;;;;;;;;;;;;;;;;5040913;28;20205;-61
2023/05/24 08:11:34;;;;;;;;;;;;;;;;;;5045122;28;20085;-61
2023/05/24 08:14:02;;;;;;;;;;;;;;;;;;5026874;28;20429;-61
2023/05/24 08:16:27;;;;;;;;;;;;;;;;;;5033870;28;19974;-63
2023/05/24 08:18:53;;;;;;;;;;;;;;;;;;5030306;28;19934;-61
2023/05/24 08:21:18;;;;;;;;;;;;;;;;;;5031840;28;20404;-61
2023/05/24 08:23:43;;;;;;;;;;;;;;;;;;5022053;28;20677;-61
2023/05/24 08:26:11;;;;;;;;;;;;;;;;;;5005080;28;19924;-61
2023/05/24 08:28:37;;;;;;;;;;;;;;;;;;5021802;28;20103;-60
2023/05/24 08:31:03;;;;;;;;;;;;;;;;;;5031415;28;19946;-62
2023/05/24 08:33:28;;;;;;;;;;;;;;;;;;5010450;28;20240;-62
2023/05/24 08:35:53;;;;;;;;;;;;;;;;;;5020608;28;19928;-62
2023/05/24 08:38:19;;;;;;;;;;;;;;;;;;5034373;28;19946;-61
2023/05/24 08:40:44;;;;;;;;;;;;;;;;;;5051294;28;19920;-62
2023/05/24 08:43:13;;;;;;;;;;;;;;;;;;5046892;28;19975;-62
2023/05/24 08:45:38;;;;;;;;;;;;;;;;;;5032419;28;19923;-61
2023/05/24 08:48:04;;;;;;;;;;;;;;;;;;5069704;28;19916;-61
2023/05/24 08:53:49;;;;;;;;;;;;;;;;;;5067502;28;19954;-60
2023/05/24 08:56:16;;;;;;;;;;;;;;;;;;5049344;28;19924;-61
2023/05/24 08:58:41;;;;;;;;;;;;;;;;;;5061999;28;19923;-62
2023/05/24 09:01:07;;;;;;;;;;;;;;;;;;5054510;28;20540;-63
2023/05/24 09:03:32;;;;;;;;;;;;;;;;;;5053160;28;19916;-61
2023/05/24 09:06:00;;;;;;;;;;;;;;;;;;5035590;28;19973;-62
2023/05/24 09:08:28;;;;;;;;;;;;;;;;;;5054350;28;20550;-60
2023/05/24 09:10:58;;;;;;;;;;;;;;;;;;5038488;28;19997;-60
2023/05/24 09:13:24;;;;;;;;;;;;;;;;;;5070353;28;19915;-60
2023/05/24 09:19:05;;;;;;;;;;;;;;;;;;5066559;28;20440;-62
2023/05/24 09:21:31;;;;;;;;;;;;;;;;;;5052634;28;19924;-62
2023/05/24 09:23:56;;;;;;;;;;;;;;;;;;5046386;28;19923;-62
2023/05/24 09:26:25;;;;;;;;;;;;;;;;;;5051660;28;20364;-62
2023/05/24 09:28:50;;;;;;;;;;;;;;;;;;5037758;28;19916;-62
2023/05/24 09:31:18;;;;;;;;;;;;;;;;;;5034869;28;19922;-62
2023/05/24 09:33:44;;;;;;;;;;;;;;;;;;5049043;28;19942;-60
2023/05/24 09:36:12;;;;;;;;;;;;;;;;;;5052739;28;20044;-61
2023/05/24 09:38:40;;;;;;;;;;;;;;;;;;5031500;28;20010;-62
2023/05/24 09:41:09;;;;;;;;;;;;;;;;;;5047469;28;20049;-61
2023/05/24 09:43:36;;;;;;;;;;;;;;;;;;5055288;28;20012;-61
2023/05/24 09:46:04;;;;;;;;;;;;;;;;;;5045181;28;19916;-61
2023/05/24 09:48:30;;;;;;;;;;;;;;;;;;5050277;28;19927;-62
2023/05/24 09:50:56;;;;;;;;;;;;;;;;;;5045592;28;19920;-63
2023/05/24 09:53:24;;;;;;;;;;;;;;;;;;5067755;28;19977;-62
2023/05/24 09:55:49;;;;;;;;;;;;;;;;;;5052750;28;19959;-63
2023/05/24 09:58:20;;;;;;;;;;;;;;;;;;5057993;28;20378;-62
2023/05/24 10:00:45;;;;;;;;;;;;;;;;;;5054015;28;20015;-62
2023/05/24 10:03:13;;;;;;;;;;;;;;;;;;5049913;28;20852;-62
2023/05/24 10:05:39;;;;;;;;;;;;;;;;;;5043391;28;20385;-62
2023/05/24 10:08:08;;;;;;;;;;;;;;;;;;5071654;28;19999;-61
2023/05/24 10:10:34;;;;;;;;;;;;;;;;;;5054449;28;19997;-62
2023/05/24 10:13:01;;;;;;;;;;;;;;;;;;5050926;28;20604;-61
2023/05/24 10:15:27;;;;;;;;;;;;;;;;;;5065236;28;19962;-62
2023/05/24 10:17:52;;;;;;;;;;;;;;;;;;5035799;28;20353;-61
2023/05/24 10:20:17;;;;;;;;;;;;;;;;;;5049858;28;19920;-62
2023/05/24 10:22:45;;;;;;;;;;;;;;;;;;5051657;28;20352;-61
2023/05/24 10:25:13;;;;;;;;;;;;;;;;;;5052546;28;19920;-62
2023/05/24 10:27:42;;;;;;;;;;;;;;;;;;5070086;28;19924;-61
2023/05/24 10:30:08;;;;;;;;;;;;;;;;;;5052900;28;19926;-62
2023/05/24 10:32:33;;;;;;;;;;;;;;;;;;5051791;28;19920;-62
2023/05/24 10:35:01;;;;;;;;;;;;;;;;;;5071678;28;20529;-63
2023/05/24 10:37:33;;;;;;;;;;;;;;;;;;5046742;28;19924;-62
2023/05/24 10:39:58;;;;;;;;;;;;;;;;;;5031836;28;21503;-62
2023/05/24 10:42:23;;;;;;;;;;;;;;;;;;5066179;28;20355;-62
2023/05/24 10:44:48;;;;;;;;;;;;;;;;;;5031063;28;21495;-62
2023/05/24 10:47:16;;;;;;;;;;;;;;;;;;5067099;28;20225;-63
2023/05/24 10:49:44;;;;;;;;;;;;;;;;;;5067382;28;19945;-62
2023/05/24 10:52:12;;;;;;;;;;;;;;;;;;5068236;28;19920;-62
2023/05/24 10:54:40;;;;;;;;;;;;;;;;;;5068191;28;19927;-62
2023/05/24 11:00:26;;;;;;;;;;;;;;;;;;5070174;28;19931;-62
2023/05/24 11:02:53;;;;;;;;;;;;;;;;;;5041806;28;19973;-62
2023/05/24 11:05:19;;;;;;;;;;;;;;;;;;5048591;28;19916;-62
2023/05/24 11:07:44;;;;;;;;;;;;;;;;;;5050909;28;19974;-61
2023/05/24 11:10:12;;;;;;;;;;;;;;;;;;5066536;28;20321;-62
2023/05/24 11:12:39;;;;;;;;;;;;;;;;;;5065859;28;20020;-62
2023/05/24 11:15:07;;;;;;;;;;;;;;;;;;5048735;28;20075;-62
2023/05/24 11:17:32;;;;;;;;;;;;;;;;;;5035549;28;20256;-63
2023/05/24 11:19:59;;;;;;;;;;;;;;;;;;5051471;28;19932;-62
2023/05/24 11:22:27;;;;;;;;;;;;;;;;;;5052224;28;19927;-62
2023/05/24 11:28:11;;;;;;;;;;;;;;;;;;5068739;28;19931;-61
2023/05/24 11:30:37;;;;;;;;;;;;;;;;;;5034781;28;19920;-59
2023/05/24 11:33:17;;;;;;;;;;;;;;;;;;5063998;28;20370;-61
2023/05/24 11:35:47;;;;;;;;;;;;;;;;;;5051851;28;20050;-62
2023/05/24 11:38:16;;;;;;;;;;;;;;;;;;5045710;28;19975;-62
2023/05/24 11:40:43;;;;;;;;;;;;;;;;;;5068763;28;19920;-62
2023/05/24 11:43:09;;;;;;;;;;;;;;;;;;5050913;28;20559;-60
2023/05/24 11:45:35;;;;;;;;;;;;;;;;;;5062957;28;20363;-61
2023/05/24 11:48:00;;;;;;;;;;;;;;;;;;5051642;28;19927;-60
2023/05/24 11:50:25;;;;;;;;;;;;;;;;;;5068230;28;19920;-61
2023/05/24 11:52:54;;;;;;;;;;;;;;;;;;5033724;28;19975;-62
2023/05/24 11:55:22;;;;;;;;;;;;;;;;;;5052827;28;20006;-62
2023/05/24 11:57:47;;;;;;;;;;;;;;;;;;5068501;28;19978;-61
2023/05/24 12:00:16;;;;;;;;;;;;;;;;;;5066042;28;19928;-61
2023/05/24 12:02:45;;;;;;;;;;;;;;;;;;5045921;28;20005;-63
2023/05/24 12:05:12;;;;;;;;;;;;;;;;;;5049526;28;19920;-61
2023/05/24 12:07:40;;;;;;;;;;;;;;;;;;5033555;28;20508;-60
2023/05/24 12:10:09;;;;;;;;;;;;;;;;;;5027766;28;20480;-62
2023/05/24 12:12:37;;;;;;;;;;;;;;;;;;5068146;28;19920;-61
2023/05/24 12:15:04;;;;;;;;;;;;;;;;;;5031217;28;20332;-60
2023/05/24 12:17:29;;;;;;;;;;;;;;;;;;5064504;28;24816;-60
2023/05/24 12:19:57;;;;;;;;;;;;;;;;;;5049259;28;19959;-61
2023/05/24 12:22:22;;;;;;;;;;;;;;;;;;5067333;28;19920;-59
2023/05/24 12:24:51;;;;;;;;;;;;;;;;;;5042651;28;19916;-61
2023/05/24 12:27:16;;;;;;;;;;;;;;;;;;5030967;28;20324;-62
2023/05/24 12:29:42;;;;;;;;;;;;;;;;;;5067918;28;19989;-60
2023/05/24 12:32:11;;;;;;;;;;;;;;;;;;5051610;28;19938;-61
2023/05/24 12:34:36;;;;;;;;;;;;;;;;;;5070568;28;19931;-61
2023/05/24 12:37:01;;;;;;;;;;;;;;;;;;5067645;28;20757;-60
2023/05/24 12:39:34;;;;;;;;;;;;;;;;;;5052602;28;19924;-61
2023/05/24 12:42:02;;;;;;;;;;;;;;;;;;5053084;28;19959;-61
2023/05/24 12:44:30;;;;;;;;;;;;;;;;;;5051694;28;19959;-60
2023/05/24 12:46:55;;;;;;;;;;;;;;;;;;5053023;28;19923;-61
2023/05/24 12:49:20;;;;;;;;;;;;;;;;;;5035690;28;20560;-62
2023/05/24 12:51:46;;;;;;;;;;;;;;;;;;5069644;28;20295;-62
2023/05/24 12:54:14;;;;;;;;;;;;;;;;;;5045033;28;19920;-61
2023/05/24 12:56:40;;;;;;;;;;;;;;;;;;5038326;28;20055;-60
2023/05/24 12:59:08;;;;;;;;;;;;;;;;;;5064286;28;19956;-61
2023/05/24 13:04:50;;;;;;;;;;;;;;;;;;5065304;28;19926;-60
2023/05/24 13:07:15;;;;;;;;;;;;;;;;;;5043687;28;19924;-60
2023/05/24 13:09:41;;;;;;;;;;;;;;;;;;5067410;28;20462;-60
2023/05/24 13:12:10;;;;;;;;;;;;;;;;;;5048652;28;20057;-61
2023/05/24 13:14:35;;;;;;;;;;;;;;;;;;5051721;28;20504;-60
2023/05/24 13:17:01;;;;;;;;;;;;;;;;;;5059947;28;20512;-61
2023/05/24 13:19:28;;;;;;;;;;;;;;;;;;5067207;28;19920;-60
2023/05/24 13:21:56;;;;;;;;;;;;;;;;;;5044721;28;19915;-60
2023/05/24 13:24:24;;;;;;;;;;;;;;;;;;5050309;28;19920;-62
2023/05/24 13:26:50;;;;;;;;;;;;;;;;;;5033528;28;19982;-62
2023/05/24 13:29:15;;;;;;;;;;;;;;;;;;5044475;28;19969;-62
2023/05/24 13:31:43;;;;;;;;;;;;;;;;;;5036640;28;20123;-62
2023/05/24 13:34:11;;;;;;;;;;;;;;;;;;5047871;28;19920;-62
2023/05/24 13:36:36;;;;;;;;;;;;;;;;;;5070498;28;19951;-63
2023/05/24 13:39:05;;;;;;;;;;;;;;;;;;5032679;28;20440;-62
2023/05/24 13:41:31;;;;;;;;;;;;;;;;;;5067249;28;19968;-61
2023/05/24 13:43:57;;;;;;;;;;;;;;;;;;5065753;28;20390;-61
2023/05/24 13:46:22;;;;;;;;;;;;;;;;;;5051163;28;19927;-62
2023/05/24 13:48:51;;;;;;;;;;;;;;;;;;5062159;28;19954;-62
2023/05/24 13:51:18;;;;;;;;;;;;;;;;;;5052604;28;19920;-62
2023/05/24 13:53:46;;;;;;;;;;;;;;;;;;5048840;28;19985;-61
2023/05/24 13:59:31;;;;;;;;;;;;;;;;;;5067559;28;19962;-62
2023/05/24 14:01:56;;;;;;;;;;;;;;;;;;5050501;28;19920;-62
2023/05/24 14:04:22;;;;;;;;;;;;;;;;;;5070976;28;20363;-61
2023/05/24 14:06:47;;;;;;;;;;;;;;;;;;5069425;28;20321;-62
2023/05/24 14:09:13;;;;;;;;;;;;;;;;;;5049191;28;20388;-62
2023/05/24 14:11:38;;;;;;;;;;;;;;;;;;5069733;28;20359;-62
2023/05/24 14:14:03;;;;;;;;;;;;;;;;;;5047586;28;19931;-61
2023/05/24 14:16:35;;;;;;;;;;;;;;;;;;5065832;28;20015;-62
2023/05/24 14:19:02;;;;;;;;;;;;;;;;;;5067050;28;20044;-61
2023/05/24 14:21:31;;;;;;;;;;;;;;;;;;5032519;28;20713;-61
2023/05/24 14:23:56;;;;;;;;;;;;;;;;;;5069774;28;20696;-62
2023/05/24 14:26:24;;;;;;;;;;;;;;;;;;5053615;28;20052;-60
2023/05/24 14:28:49;;;;;;;;;;;;;;;;;;5067922;28;20029;-62
2023/05/24 14:31:17;;;;;;;;;;;;;;;;;;5053978;28;19926;-62
2023/05/24 14:33:45;;;;;;;;;;;;;;;;;;5071324;28;19927;-65
2023/05/24 14:36:13;;;;;;;;;;;;;;;;;;5029825;28;19916;-63
2023/05/24 14:38:41;;;;;;;;;;;;;;;;;;5066564;28;19931;-63
2023/05/24 14:41:08;;;;;;;;;;;;;;;;;;5034469;28;21502;-63
2023/05/24 14:43:33;;;;;;;;;;;;;;;;;;5054388;28;20376;-62
2023/05/24 14:45:58;;;;;;;;;;;;;;;;;;5052830;28;19929;-62
2023/05/24 14:48:24;;;;;;;;;;;;;;;;;;5031419;28;19951;-61
2023/05/24 14:50:52;;;;;;;;;;;;;;;;;;5069669;28;19939;-61
2023/05/24 14:53:17;;;;;;;;;;;;;;;;;;5051455;28;19981;-61
2023/05/24 14:55:42;;;;;;;;;;;;;;;;;;5053867;28;19931;-60
2023/05/24 14:58:10;;;;;;;;;;;;;;;;;;5036922;28;20261;-62
2023/05/24 15:00:36;;;;;;;;;;;;;;;;;;5032886;28;19927;-62
2023/05/24 15:03:01;;;;;;;;;;;;;;;;;;5067082;28;20026;-62
2023/05/24 15:05:26;;;;;;;;;;;;;;;;;;5068226;28;19924;-62
2023/05/24 15:07:52;;;;;;;;;;;;;;;;;;5068158;28;19928;-61
2023/05/24 15:10:21;;;;;;;;;;;;;;;;;;5050967;28;20678;-61
2023/05/24 15:12:47;;;;;;;;;;;;;;;;;;5052176;28;19993;-62
2023/05/24 15:15:17;;;;;;;;;;;;;;;;;;5030638;28;19923;-62
2023/05/24 15:17:46;;;;;;;;;;;;;;;;;;5068132;28;20424;-61
2023/05/24 15:20:11;;;;;;;;;;;;;;;;;;5051892;28;19915;-63
2023/05/24 15:22:37;;;;;;;;;;;;;;;;;;5052399;28;19920;-63
2023/05/24 15:25:05;;;;;;;;;;;;;;;;;;5071221;28;22505;-61
2023/05/24 15:27:32;;;;;;;;;;;;;;;;;;5045400;28;20217;-61
2023/05/24 15:30:00;;;;;;;;;;;;;;;;;;5033346;28;19979;-61
2023/05/24 15:32:28;;;;;;;;;;;;;;;;;;5065681;28;19972;-61
2023/05/24 15:34:54;;;;;;;;;;;;;;;;;;5031139;28;20440;-60
2023/05/24 15:37:22;;;;;;;;;;;;;;;;;;5048242;28;19920;-60
2023/05/24 15:39:48;;;;;;;;;;;;;;;;;;5068280;28;19920;-62
2023/05/24 15:42:14;;;;;;;;;;;;;;;;;;5049086;28;20037;-60
2023/05/24 15:44:39;;;;;;;;;;;;;;;;;;5046912;28;19920;-60
2023/05/24 15:47:05;;;;;;;;;;;;;;;;;;5048853;28;19951;-59
2023/05/24 15:49:30;;;;;;;;;;;;;;;;;;5066731;28;20021;-59
2023/05/24 15:51:55;;;;;;;;;;;;;;;;;;5033673;28;19926;-61
2023/05/24 15:54:21;;;;;;;;;;;;;;;;;;5049815;28;19931;-60
2023/05/24 15:56:48;;;;;;;;;;;;;;;;;;5053409;28;20375;-60
2023/05/24 15:59:14;;;;;;;;;;;;;;;;;;5048467;28;19931;-61
2023/05/24 16:01:40;;;;;;;;;;;;;;;;;;5066802;28;19916;-61
2023/05/24 16:04:10;;;;;;;;;;;;;;;;;;5034209;28;20644;-61
2023/05/24 16:06:37;;;;;;;;;;;;;;;;;;5067263;28;19916;-61
2023/05/24 16:09:04;;;;;;;;;;;;;;;;;;5051562;28;19934;-61
2023/05/24 16:11:29;;;;;;;;;;;;;;;;;;5047459;28;19955;-62
2023/05/24 16:14:00;;;;;;;;;;;;;;;;;;5029726;28;20208;-60
2023/05/24 16:16:25;;;;;;;;;;;;;;;;;;5048958;28;20264;-61
2023/05/24 16:18:53;;;;;;;;;;;;;;;;;;5045120;28;19927;-60
2023/05/24 16:21:18;;;;;;;;;;;;;;;;;;5066566;28;20378;-61
2023/05/24 16:23:43;;;;;;;;;;;;;;;;;;5049143;28;19920;-61
2023/05/24 16:26:11;;;;;;;;;;;;;;;;;;5065562;28;19920;-61
2023/05/24 16:28:37;;;;;;;;;;;;;;;;;;5047780;28;19931;-61
2023/05/24 16:31:02;;;;;;;;;;;;;;;;;;5025587;28;19919;-60
2023/05/24 16:33:30;;;;;;;;;;;;;;;;;;5050589;28;20045;-61
2023/05/24 16:36:00;;;;;;;;;;;;;;;;;;5066329;28;20377;-60
2023/05/24 16:38:25;;;;;;;;;;;;;;;;;;5031334;28;20633;-61
2023/05/24 16:40:53;;;;;;;;;;;;;;;;;;5031870;28;19993;-61
2023/05/24 16:43:18;;;;;;;;;;;;;;;;;;5046541;28;20214;-61
2023/05/24 16:45:44;;;;;;;;;;;;;;;;;;5050562;28;19972;-61
2023/05/24 16:48:12;;;;;;;;;;;;;;;;;;5037971;28;19935;-62
2023/05/24 16:50:38;;;;;;;;;;;;;;;;;;5030809;28;20387;-60
2023/05/24 16:53:03;;;;;;;;;;;;;;;;;;5045067;28;19920;-60
2023/05/24 16:55:28;;;;;;;;;;;;;;;;;;5025043;28;19920;-61
2023/05/24 16:57:56;;;;;;;;;;;;;;;;;;5048291;28;19927;-62
2023/05/24 17:00:22;;;;;;;;;;;;;;;;;;5049455;28;19919;-61
2023/05/24 17:02:47;;;;;;;;;;;;;;;;;;5047412;28;19931;-61
2023/05/24 17:05:12;;;;;;;;;;;;;;;;;;5048659;28;19977;-62
2023/05/24 17:07:41;;;;;;;;;;;;;;;;;;5068800;28;20946;-61